sensor_id;sensor_type;location;lat;lon;timestamp;pressure;altitude;pressure_sealevel;temperature;humidity
11525;BME280;5819;49.648;8.330;2023-07-22T00:00:47;100305.91;;;18.38;72.25
11525;BME280;5819;49.648;8.330;2023-07-22T00:03:15;100309.69;;;18.23;74.92
11525;BME280;5819;49.648;8.330;2023-07-22T00:05:43;100307.84;;;18.01;78.39
11525;BME280;5819;49.648;8.330;2023-07-22T00:08:12;100306.41;;;18.08;79.26
11525;BME280;5819;49.648;8.330;2023-07-22T00:10:41;100308.47;;;17.81;84.70
11525;BME280;5819;49.648;8.330;2023-07-22T00:13:09;100304.19;;;17.67;85.97
11525;BME280;5819;49.648;8.330;2023-07-22T00:15:37;100308.84;;;17.51;87.33
11525;BME280;5819;49.648;8.330;2023-07-22T00:18:06;100314.75;;;17.42;88.73
11525;BME280;5819;49.648;8.330;2023-07-22T00:20:34;100304.97;;;17.44;88.99
11525;BME280;5819;49.648;8.330;2023-07-22T00:23:02;100310.56;;;17.40;87.10
11525;BME280;5819;49.648;8.330;2023-07-22T00:25:31;100308.47;;;17.32;86.97
11525;BME280;5819;49.648;8.330;2023-07-22T00:28:00;100312.19;;;17.17;86.80
11525;BME280;5819;49.648;8.330;2023-07-22T00:30:27;100312.69;;;17.09;86.76
11525;BME280;5819;49.648;8.330;2023-07-22T00:32:55;100312.59;;;17.11;85.88
11525;BME280;5819;49.648;8.330;2023-07-22T00:35:24;100311.22;;;17.05;85.44
11525;BME280;5819;49.648;8.330;2023-07-22T00:37:52;100313.88;;;17.05;84.75
11525;BME280;5819;49.648;8.330;2023-07-22T00:40:20;100317.16;;;17.09;84.89
11525;BME280;5819;49.648;8.330;2023-07-22T00:42:50;100311.53;;;17.13;84.03
11525;BME280;5819;49.648;8.330;2023-07-22T00:45:18;100303.78;;;17.12;83.38
11525;BME280;5819;49.648;8.330;2023-07-22T00:47:46;100314.50;;;17.09;82.94
11525;BME280;5819;49.648;8.330;2023-07-22T00:50:15;100301.56;;;17.06;82.65
11525;BME280;5819;49.648;8.330;2023-07-22T00:52:42;100309.25;;;17.09;82.61
11525;BME280;5819;49.648;8.330;2023-07-22T00:55:10;100309.25;;;17.09;82.39
11525;BME280;5819;49.648;8.330;2023-07-22T00:57:39;100307.44;;;17.09;82.04
11525;BME280;5819;49.648;8.330;2023-07-22T01:00:09;100301.88;;;17.14;81.49
11525;BME280;5819;49.648;8.330;2023-07-22T01:02:38;100300.38;;;17.22;80.76
11525;BME280;5819;49.648;8.330;2023-07-22T01:05:07;100299.84;;;17.30;80.14
11525;BME280;5819;49.648;8.330;2023-07-22T01:07:37;100296.03;;;17.34;80.22
11525;BME280;5819;49.648;8.330;2023-07-22T01:10:06;100290.69;;;17.36;80.41
11525;BME280;5819;49.648;8.330;2023-07-22T01:12:36;100295.09;;;17.35;79.78
11525;BME280;5819;49.648;8.330;2023-07-22T01:15:05;100296.88;;;17.35;79.27
11525;BME280;5819;49.648;8.330;2023-07-22T01:17:37;100295.09;;;17.35;79.78
11525;BME280;5819;49.648;8.330;2023-07-22T01:20:07;100302.75;;;17.38;79.63
11525;BME280;5819;49.648;8.330;2023-07-22T01:22:36;100287.97;;;17.37;79.78
11525;BME280;5819;49.648;8.330;2023-07-22T01:25:08;100289.53;;;17.40;79.08
11525;BME280;5819;49.648;8.330;2023-07-22T01:27:37;100283.41;;;17.75;78.13
11525;BME280;5819;49.648;8.330;2023-07-22T01:30:07;100289.91;;;17.59;78.06
11525;BME280;5819;49.648;8.330;2023-07-22T01:32:36;100287.38;;;17.57;79.18
11525;BME280;5819;49.648;8.330;2023-07-22T01:35:06;100286.44;;;17.58;79.32
11525;BME280;5819;49.648;8.330;2023-07-22T01:37:34;100277.88;;;17.55;79.70
11525;BME280;5819;49.648;8.330;2023-07-22T01:40:02;100284.31;;;17.51;79.72
11525;BME280;5819;49.648;8.330;2023-07-22T01:42:39;100280.63;;;17.53;79.01
11525;BME280;5819;49.648;8.330;2023-07-22T01:45:09;100278.00;;;17.53;78.75
11525;BME280;5819;49.648;8.330;2023-07-22T01:47:38;100282.44;;;17.53;78.77
11525;BME280;5819;49.648;8.330;2023-07-22T01:50:07;100278.13;;;17.52;79.13
11525;BME280;5819;49.648;8.330;2023-07-22T01:52:35;100281.25;;;17.57;80.39
11525;BME280;5819;49.648;8.330;2023-07-22T01:55:04;100278.00;;;17.53;80.85
11525;BME280;5819;49.648;8.330;2023-07-22T01:57:33;100278.13;;;17.52;81.51
11525;BME280;5819;49.648;8.330;2023-07-22T02:00:03;100269.84;;;17.45;82.03
11525;BME280;5819;49.648;8.330;2023-07-22T02:02:38;100273.09;;;17.49;81.87
11525;BME280;5819;49.648;8.330;2023-07-22T02:05:08;100275.81;;;17.47;81.83
11525;BME280;5819;49.648;8.330;2023-07-22T02:07:37;100274.97;;;17.47;81.65
11525;BME280;5819;49.648;8.330;2023-07-22T02:10:06;100271.25;;;17.49;79.97
11525;BME280;5819;49.648;8.330;2023-07-22T02:12:34;100274.66;;;17.51;79.24
11525;BME280;5819;49.648;8.330;2023-07-22T02:15:04;100277.28;;;17.51;79.00
11525;BME280;5819;49.648;8.330;2023-07-22T02:17:32;100281.69;;;17.51;78.74
11525;BME280;5819;49.648;8.330;2023-07-22T02:20:00;100279.81;;;17.53;78.74
11525;BME280;5819;49.648;8.330;2023-07-22T02:22:31;100275.25;;;17.55;79.75
11525;BME280;5819;49.648;8.330;2023-07-22T02:24:59;100279.06;;;17.63;79.88
11525;BME280;5819;49.648;8.330;2023-07-22T02:27:27;100278.19;;;17.63;81.37
11525;BME280;5819;49.648;8.330;2023-07-22T02:29:55;100278.44;;;17.60;83.99
11525;BME280;5819;49.648;8.330;2023-07-22T02:32:24;100280.63;;;17.53;86.68
11525;BME280;5819;49.648;8.330;2023-07-22T02:34:52;100280.13;;;17.48;88.19
11525;BME280;5819;49.648;8.330;2023-07-22T02:37:20;100277.94;;;17.42;88.68
11525;BME280;5819;49.648;8.330;2023-07-22T02:39:48;100278.59;;;17.33;89.07
11525;BME280;5819;49.648;8.330;2023-07-22T02:42:16;100289.88;;;17.22;88.09
11525;BME280;5819;49.648;8.330;2023-07-22T02:44:44;100286.72;;;17.17;88.66
11525;BME280;5819;49.648;8.330;2023-07-22T02:47:12;100282.84;;;17.10;89.53
11525;BME280;5819;49.648;8.330;2023-07-22T02:49:42;100276.34;;;17.03;89.62
11525;BME280;5819;49.648;8.330;2023-07-22T02:52:09;100284.56;;;16.99;90.58
11525;BME280;5819;49.648;8.330;2023-07-22T02:54:39;100285.63;;;16.96;90.53
11525;BME280;5819;49.648;8.330;2023-07-22T02:57:07;100285.63;;;16.96;90.37
11525;BME280;5819;49.648;8.330;2023-07-22T02:59:35;100286.84;;;17.03;89.63
11525;BME280;5819;49.648;8.330;2023-07-22T03:02:03;100285.69;;;17.07;89.47
11525;BME280;5819;49.648;8.330;2023-07-22T03:04:32;100283.78;;;17.09;88.91
11525;BME280;5819;49.648;8.330;2023-07-22T03:07:01;100288.94;;;17.11;88.25
11525;BME280;5819;49.648;8.330;2023-07-22T03:09:29;100286.84;;;17.16;87.58
11525;BME280;5819;49.648;8.330;2023-07-22T03:11:56;100296.72;;;17.25;86.52
11525;BME280;5819;49.648;8.330;2023-07-22T03:14:24;100285.16;;;17.15;86.77
11525;BME280;5819;49.648;8.330;2023-07-22T03:16:52;100283.06;;;17.07;87.20
11525;BME280;5819;49.648;8.330;2023-07-22T03:19:20;100282.00;;;17.10;87.90
11525;BME280;5819;49.648;8.330;2023-07-22T03:21:49;100289.47;;;17.16;87.33
11525;BME280;5819;49.648;8.330;2023-07-22T03:24:18;100287.78;;;17.15;88.19
11525;BME280;5819;49.648;8.330;2023-07-22T03:26:47;100285.91;;;17.17;87.88
11525;BME280;5819;49.648;8.330;2023-07-22T03:29:15;100288.22;;;17.09;88.51
11525;BME280;5819;49.648;8.330;2023-07-22T03:31:42;100289.41;;;17.05;88.86
11525;BME280;5819;49.648;8.330;2023-07-22T03:34:10;100294.97;;;17.00;89.49
11525;BME280;5819;49.648;8.330;2023-07-22T03:36:38;100289.41;;;17.05;88.89
11525;BME280;5819;49.648;8.330;2023-07-22T03:39:08;100298.63;;;16.98;89.68
11525;BME280;5819;49.648;8.330;2023-07-22T03:41:37;100298.13;;;16.93;90.00
11525;BME280;5819;49.648;8.330;2023-07-22T03:44:07;100298.84;;;16.95;90.77
11525;BME280;5819;49.648;8.330;2023-07-22T03:46:34;100300.00;;;17.03;90.11
11525;BME280;5819;49.648;8.330;2023-07-22T03:49:02;100299.69;;;16.95;90.61
11525;BME280;5819;49.648;8.330;2023-07-22T03:51:30;100299.38;;;16.87;92.08
11525;BME280;5819;49.648;8.330;2023-07-22T03:53:59;100299.38;;;16.87;92.43
11525;BME280;5819;49.648;8.330;2023-07-22T03:56:27;100300.22;;;16.88;92.65
11525;BME280;5819;49.648;8.330;2023-07-22T03:58:57;100290.25;;;16.93;92.71
11525;BME280;5819;49.648;8.330;2023-07-22T04:01:25;100293.59;;;16.95;92.98
11525;BME280;5819;49.648;8.330;2023-07-22T04:03:53;100295.38;;;16.94;93.40
11525;BME280;5819;49.648;8.330;2023-07-22T04:06:21;100289.72;;;16.88;94.31
11525;BME280;5819;49.648;8.330;2023-07-22T04:08:50;100294.56;;;16.81;93.93
11525;BME280;5819;49.648;8.330;2023-07-22T04:11:18;100289.19;;;16.82;94.69
11525;BME280;5819;49.648;8.330;2023-07-22T04:13:46;100292.03;;;16.92;93.60
11525;BME280;5819;49.648;8.330;2023-07-22T04:16:17;100290.75;;;16.98;92.61
11525;BME280;5819;49.648;8.330;2023-07-22T04:18:45;100296.53;;;17.03;92.02
11525;BME280;5819;49.648;8.330;2023-07-22T04:21:13;100292.66;;;17.08;91.16
11525;BME280;5819;49.648;8.330;2023-07-22T04:23:40;100291.47;;;17.12;90.67
11525;BME280;5819;49.648;8.330;2023-07-22T04:26:09;100288.31;;;17.07;90.55
11525;BME280;5819;49.648;8.330;2023-07-22T04:28:37;100284.75;;;17.08;90.08
11525;BME280;5819;49.648;8.330;2023-07-22T04:31:04;100283.59;;;17.00;90.62
11525;BME280;5819;49.648;8.330;2023-07-22T04:33:35;100282.84;;;16.98;91.30
11525;BME280;5819;49.648;8.330;2023-07-22T04:36:03;100289.28;;;16.94;91.94
11525;BME280;5819;49.648;8.330;2023-07-22T04:38:31;100296.22;;;16.95;92.07
11525;BME280;5819;49.648;8.330;2023-07-22T04:40:59;100289.59;;;17.02;91.87
11525;BME280;5819;49.648;8.330;2023-07-22T04:43:28;100292.03;;;17.05;90.97
11525;BME280;5819;49.648;8.330;2023-07-22T04:45:56;100289.16;;;17.08;90.55
11525;BME280;5819;49.648;8.330;2023-07-22T04:48:24;100292.31;;;17.13;90.34
11525;BME280;5819;49.648;8.330;2023-07-22T04:50:54;100296.63;;;17.14;90.37
11525;BME280;5819;49.648;8.330;2023-07-22T04:53:21;100299.03;;;17.17;90.58
11525;BME280;5819;49.648;8.330;2023-07-22T04:55:49;100295.13;;;17.22;90.45
11525;BME280;5819;49.648;8.330;2023-07-22T04:58:18;100283.09;;;17.44;89.90
11525;BME280;5819;49.648;8.330;2023-07-22T05:00:46;100291.13;;;17.53;89.38
11525;BME280;5819;49.648;8.330;2023-07-22T05:03:16;100292.53;;;17.59;90.28
11525;BME280;5819;49.648;8.330;2023-07-22T05:05:44;100284.53;;;17.60;89.99
11525;BME280;5819;49.648;8.330;2023-07-22T05:08:14;100294.41;;;17.57;89.32
11525;BME280;5819;49.648;8.330;2023-07-22T05:10:42;100298.06;;;17.67;87.93
11525;BME280;5819;49.648;8.330;2023-07-22T05:13:09;100301.09;;;17.73;86.42
11525;BME280;5819;49.648;8.330;2023-07-22T05:15:37;100289.38;;;17.77;86.02
11525;BME280;5819;49.648;8.330;2023-07-22T05:18:05;100293.38;;;17.83;86.62
11525;BME280;5819;49.648;8.330;2023-07-22T05:20:33;100297.97;;;17.92;86.74
11525;BME280;5819;49.648;8.330;2023-07-22T05:23:01;100298.13;;;18.02;86.64
11525;BME280;5819;49.648;8.330;2023-07-22T05:25:31;100289.53;;;18.11;86.17
11525;BME280;5819;49.648;8.330;2023-07-22T05:27:59;100291.16;;;18.24;86.05
11525;BME280;5819;49.648;8.330;2023-07-22T05:30:27;100296.28;;;18.26;85.70
11525;BME280;5819;49.648;8.330;2023-07-22T05:33:02;100287.09;;;18.32;85.28
11525;BME280;5819;49.648;8.330;2023-07-22T05:35:30;100294.09;;;18.44;83.08
11525;BME280;5819;49.648;8.330;2023-07-22T05:37:58;100289.66;;;18.44;83.79
11525;BME280;5819;49.648;8.330;2023-07-22T05:40:26;100287.91;;;18.56;82.24
11525;BME280;5819;49.648;8.330;2023-07-22T05:42:55;100293.06;;;18.57;82.23
11525;BME280;5819;49.648;8.330;2023-07-22T05:45:23;100289.00;;;18.64;82.16
11525;BME280;5819;49.648;8.330;2023-07-22T05:47:52;100297.88;;;18.75;82.07
11525;BME280;5819;49.648;8.330;2023-07-22T06:23:53;100291.09;;;20.34;69.96
11525;BME280;5819;49.648;8.330;2023-07-22T06:26:22;100305.63;;;20.08;69.75
11525;BME280;5819;49.648;8.330;2023-07-22T06:28:51;100304.81;;;19.96;71.31
11525;BME280;5819;49.648;8.330;2023-07-22T06:31:18;100307.00;;;19.91;71.47
11525;BME280;5819;49.648;8.330;2023-07-22T06:33:46;100309.56;;;19.82;72.63
11525;BME280;5819;49.648;8.330;2023-07-22T06:36:14;100308.16;;;19.98;72.13
11525;BME280;5819;49.648;8.330;2023-07-22T06:38:43;100309.41;;;20.15;71.78
11525;BME280;5819;49.648;8.330;2023-07-22T06:41:14;100312.91;;;20.16;72.58
11525;BME280;5819;49.648;8.330;2023-07-22T06:43:42;100311.59;;;20.10;72.82
11525;BME280;5819;49.648;8.330;2023-07-22T06:46:11;100308.91;;;20.53;71.97
11525;BME280;5819;49.648;8.330;2023-07-22T06:48:41;100305.16;;;20.55;72.00
11525;BME280;5819;49.648;8.330;2023-07-22T06:51:10;100305.16;;;20.55;71.40
11525;BME280;5819;49.648;8.330;2023-07-22T06:53:39;100305.44;;;20.52;71.75
11525;BME280;5819;49.648;8.330;2023-07-22T06:56:08;100309.69;;;20.44;72.69
11525;BME280;5819;49.648;8.330;2023-07-22T06:58:40;100309.09;;;20.61;72.73
11525;BME280;5819;49.648;8.330;2023-07-22T07:01:11;100309.88;;;20.52;73.12
11525;BME280;5819;49.648;8.330;2023-07-22T07:03:41;100304.03;;;20.79;72.60
11525;BME280;5819;49.648;8.330;2023-07-22T07:06:11;100300.97;;;21.04;72.39
11525;BME280;5819;49.648;8.330;2023-07-22T07:08:41;100297.56;;;21.23;72.07
11525;BME280;5819;49.648;8.330;2023-07-22T07:11:11;100302.50;;;21.07;72.13
11525;BME280;5819;49.648;8.330;2023-07-22T07:13:41;100302.19;;;21.00;72.87
11525;BME280;5819;49.648;8.330;2023-07-22T07:16:20;100312.50;;;20.73;74.58
11525;BME280;5819;49.648;8.330;2023-07-22T07:18:51;100307.81;;;20.55;75.89
11525;BME280;5819;49.648;8.330;2023-07-22T07:21:23;100304.00;;;20.99;75.31
11525;BME280;5819;49.648;8.330;2023-07-22T07:23:54;100299.16;;;21.35;74.67
11525;BME280;5819;49.648;8.330;2023-07-22T07:26:24;100297.38;;;21.55;72.79
11525;BME280;5819;49.648;8.330;2023-07-22T07:28:56;100304.06;;;21.49;71.64
11525;BME280;5819;49.648;8.330;2023-07-22T07:31:27;100311.16;;;21.09;73.35
11525;BME280;5819;49.648;8.330;2023-07-22T07:33:59;100311.31;;;20.86;74.07
11525;BME280;5819;49.648;8.330;2023-07-22T07:36:29;100309.66;;;20.85;75.07
11525;BME280;5819;49.648;8.330;2023-07-22T07:38:58;100316.56;;;21.07;73.84
11525;BME280;5819;49.648;8.330;2023-07-22T07:41:28;100306.84;;;21.38;73.51
11525;BME280;5819;49.648;8.330;2023-07-22T07:44:01;100302.56;;;21.75;72.36
11525;BME280;5819;49.648;8.330;2023-07-22T07:46:31;100307.19;;;21.73;70.72
11525;BME280;5819;49.648;8.330;2023-07-22T07:49:01;100304.44;;;22.04;71.37
11525;BME280;5819;49.648;8.330;2023-07-22T07:51:31;100305.16;;;22.34;69.06
11525;BME280;5819;49.648;8.330;2023-07-22T07:54:01;100304.72;;;22.20;69.47
11525;BME280;5819;49.648;8.330;2023-07-22T07:56:32;100312.53;;;21.92;69.16
11525;BME280;5819;49.648;8.330;2023-07-22T07:59:02;100315.56;;;21.78;70.27
11525;BME280;5819;49.648;8.330;2023-07-22T08:01:32;100310.72;;;22.03;68.73
11525;BME280;5819;49.648;8.330;2023-07-22T08:04:03;100304.31;;;22.15;67.61
11525;BME280;5819;49.648;8.330;2023-07-22T08:06:32;100299.13;;;22.23;66.68
11525;BME280;5819;49.648;8.330;2023-07-22T08:09:02;100304.31;;;22.24;66.51
11525;BME280;5819;49.648;8.330;2023-07-22T08:11:32;100309.91;;;22.02;66.18
11525;BME280;5819;49.648;8.330;2023-07-22T08:14:03;100318.72;;;21.63;67.62
11525;BME280;5819;49.648;8.330;2023-07-22T08:16:34;100318.25;;;21.38;67.99
11525;BME280;5819;49.648;8.330;2023-07-22T08:19:03;100317.03;;;21.52;68.32
11525;BME280;5819;49.648;8.330;2023-07-22T08:21:32;100307.56;;;21.59;68.37
11525;BME280;5819;49.648;8.330;2023-07-22T08:24:02;100305.47;;;21.63;68.97
11525;BME280;5819;49.648;8.330;2023-07-22T08:26:30;100303.44;;;21.66;68.34
11525;BME280;5819;49.648;8.330;2023-07-22T08:28:58;100302.22;;;22.09;66.61
11525;BME280;5819;49.648;8.330;2023-07-22T08:31:27;100295.66;;;22.13;65.79
11525;BME280;5819;49.648;8.330;2023-07-22T08:33:55;100286.88;;;22.22;65.03
11525;BME280;5819;49.648;8.330;2023-07-22T08:36:23;100293.28;;;22.19;65.69
11525;BME280;5819;49.648;8.330;2023-07-22T08:38:52;100290.06;;;22.45;64.48
11525;BME280;5819;49.648;8.330;2023-07-22T08:41:20;100291.03;;;22.53;63.61
11525;BME280;5819;49.648;8.330;2023-07-22T08:43:50;100282.81;;;22.47;62.45
11525;BME280;5819;49.648;8.330;2023-07-22T08:46:20;100272.84;;;22.77;62.34
11525;BME280;5819;49.648;8.330;2023-07-22T08:48:53;100273.31;;;23.00;61.50
11525;BME280;5819;49.648;8.330;2023-07-22T08:51:22;100278.94;;;22.88;62.03
11525;BME280;5819;49.648;8.330;2023-07-22T08:53:51;100272.47;;;23.00;58.51
11525;BME280;5819;49.648;8.330;2023-07-22T08:56:37;100270.09;;;23.24;60.21
11525;BME280;5819;49.648;8.330;2023-07-22T08:59:06;100262.00;;;23.53;57.20
11525;BME280;5819;49.648;8.330;2023-07-22T09:01:34;100257.69;;;23.69;58.33
11525;BME280;5819;49.648;8.330;2023-07-22T09:04:05;100273.16;;;23.29;60.15
11525;BME280;5819;49.648;8.330;2023-07-22T09:06:33;100260.66;;;23.66;59.87
11525;BME280;5819;49.648;8.330;2023-07-22T09:09:02;100259.22;;;23.54;58.11
11525;BME280;5819;49.648;8.330;2023-07-22T09:11:34;100256.34;;;23.38;58.47
11525;BME280;5819;49.648;8.330;2023-07-22T09:14:02;100260.81;;;23.38;56.92
11525;BME280;5819;49.648;8.330;2023-07-22T09:16:31;100248.16;;;23.59;57.20
11525;BME280;5819;49.648;8.330;2023-07-22T09:19:00;100239.50;;;23.74;56.86
11525;BME280;5819;49.648;8.330;2023-07-22T09:21:30;100248.28;;;23.57;57.43
11525;BME280;5819;49.648;8.330;2023-07-22T09:23:58;100235.91;;;24.01;55.82
11525;BME280;5819;49.648;8.330;2023-07-22T09:26:26;100223.91;;;25.00;53.36
11525;BME280;5819;49.648;8.330;2023-07-22T09:28:56;100209.31;;;26.03;51.09
11525;BME280;5819;49.648;8.330;2023-07-22T09:31:26;100199.22;;;26.62;50.49
11525;BME280;5819;49.648;8.330;2023-07-22T09:33:55;100203.28;;;26.33;49.42
11525;BME280;5819;49.648;8.330;2023-07-22T09:36:23;100205.00;;;26.81;49.23
11525;BME280;5819;49.648;8.330;2023-07-22T09:39:00;100227.44;;;25.09;51.83
11525;BME280;5819;49.648;8.330;2023-07-22T09:41:30;100231.22;;;24.39;53.60
11525;BME280;5819;49.648;8.330;2023-07-22T09:44:02;100237.28;;;24.23;53.47
11525;BME280;5819;49.648;8.330;2023-07-22T09:46:31;100242.53;;;23.35;55.97
11525;BME280;5819;49.648;8.330;2023-07-22T09:49:02;100248.25;;;23.12;56.84
11525;BME280;5819;49.648;8.330;2023-07-22T09:51:33;100248.34;;;22.93;56.54
11525;BME280;5819;49.648;8.330;2023-07-22T09:54:09;100244.31;;;22.89;56.24
11525;BME280;5819;49.648;8.330;2023-07-22T09:56:45;100249.94;;;22.76;56.89
11525;BME280;5819;49.648;8.330;2023-07-22T09:59:14;100244.34;;;22.79;56.93
11525;BME280;5819;49.648;8.330;2023-07-22T10:01:43;100238.91;;;22.81;56.14
11525;BME280;5819;49.648;8.330;2023-07-22T10:04:15;100226.97;;;23.22;55.39
11525;BME280;5819;49.648;8.330;2023-07-22T10:06:43;100206.34;;;24.48;52.82
11525;BME280;5819;49.648;8.330;2023-07-22T10:09:14;100188.34;;;25.09;51.08
11525;BME280;5819;49.648;8.330;2023-07-22T10:11:43;100200.34;;;24.46;51.75
11525;BME280;5819;49.648;8.330;2023-07-22T10:14:11;100209.31;;;24.01;53.20
11525;BME280;5819;49.648;8.330;2023-07-22T10:16:41;100226.50;;;23.54;54.50
11525;BME280;5819;49.648;8.330;2023-07-22T10:19:10;100223.22;;;23.60;54.01
11525;BME280;5819;49.648;8.330;2023-07-22T10:21:39;100225.22;;;23.58;56.96
11525;BME280;5819;49.648;8.330;2023-07-22T10:24:09;100222.63;;;23.84;54.44
11525;BME280;5819;49.648;8.330;2023-07-22T10:26:39;100212.56;;;23.95;53.70
11525;BME280;5819;49.648;8.330;2023-07-22T10:29:13;100211.25;;;23.73;54.24
11525;BME280;5819;49.648;8.330;2023-07-22T10:31:41;100204.19;;;23.82;54.07
11525;BME280;5819;49.648;8.330;2023-07-22T10:34:10;100213.59;;;23.76;55.65
11525;BME280;5819;49.648;8.330;2023-07-22T10:36:38;100207.28;;;23.42;54.88
11525;BME280;5819;49.648;8.330;2023-07-22T10:39:06;100213.88;;;23.38;55.03
11525;BME280;5819;49.648;8.330;2023-07-22T10:41:39;100196.47;;;23.71;53.93
11525;BME280;5819;49.648;8.330;2023-07-22T10:44:09;100181.72;;;24.46;52.18
11525;BME280;5819;49.648;8.330;2023-07-22T10:46:39;100162.00;;;25.65;49.90
11525;BME280;5819;49.648;8.330;2023-07-22T10:49:11;100160.28;;;26.28;47.79
11525;BME280;5819;49.648;8.330;2023-07-22T10:51:40;100151.06;;;26.47;46.33
11525;BME280;5819;49.648;8.330;2023-07-22T10:54:12;100170.44;;;25.44;48.73
11525;BME280;5819;49.648;8.330;2023-07-22T10:56:43;100181.19;;;24.76;49.25
11525;BME280;5819;49.648;8.330;2023-07-22T10:59:26;100193.47;;;24.35;52.23
11525;BME280;5819;49.648;8.330;2023-07-22T11:01:59;100204.00;;;24.01;52.56
11525;BME280;5819;49.648;8.330;2023-07-22T11:04:29;100203.72;;;23.69;51.49
11525;BME280;5819;49.648;8.330;2023-07-22T11:07:32;100193.72;;;23.63;47.11
11525;BME280;5819;49.648;8.330;2023-07-22T11:10:12;100179.44;;;24.25;46.65
11525;BME280;5819;49.648;8.330;2023-07-22T11:12:44;100167.31;;;26.05;44.01
11525;BME280;5819;49.648;8.330;2023-07-22T11:15:15;100094.59;;;30.85;35.43
11525;BME280;5819;49.648;8.330;2023-07-22T11:17:50;100108.97;;;31.51;34.30
11525;BME280;5819;49.648;8.330;2023-07-22T11:20:21;100125.50;;;29.99;36.16
11525;BME280;5819;49.648;8.330;2023-07-22T11:22:50;100119.59;;;30.92;34.36
11525;BME280;5819;49.648;8.330;2023-07-22T11:25:19;100153.50;;;28.17;38.12
11525;BME280;5819;49.648;8.330;2023-07-22T11:27:50;100140.63;;;27.98;38.71
11525;BME280;5819;49.648;8.330;2023-07-22T11:30:19;100147.16;;;27.58;40.19
11525;BME280;5819;49.648;8.330;2023-07-22T11:32:48;100140.03;;;28.25;39.23
11525;BME280;5819;49.648;8.330;2023-07-22T11:35:18;100141.66;;;27.60;40.52
11525;BME280;5819;49.648;8.330;2023-07-22T11:37:49;100093.34;;;30.88;34.95
11525;BME280;5819;49.648;8.330;2023-07-22T11:40:18;100105.78;;;29.37;35.91
11525;BME280;5819;49.648;8.330;2023-07-22T11:42:51;100082.91;;;31.32;34.51
11525;BME280;5819;49.648;8.330;2023-07-22T11:45:27;100070.94;;;33.34;31.24
11525;BME280;5819;49.648;8.330;2023-07-22T11:47:59;100055.53;;;33.84;29.93
11525;BME280;5819;49.648;8.330;2023-07-22T11:50:32;100078.34;;;32.12;32.09
11525;BME280;5819;49.648;8.330;2023-07-22T11:53:02;100067.84;;;32.61;31.34
11525;BME280;5819;49.648;8.330;2023-07-22T11:55:35;100064.28;;;32.99;31.23
11525;BME280;5819;49.648;8.330;2023-07-22T11:58:10;100060.34;;;32.57;30.77
11525;BME280;5819;49.648;8.330;2023-07-22T12:00:42;100084.97;;;31.50;32.24
11525;BME280;5819;49.648;8.330;2023-07-22T12:03:32;100056.84;;;32.56;31.86
11525;BME280;5819;49.648;8.330;2023-07-22T12:06:01;100067.03;;;31.57;32.37
11525;BME280;5819;49.648;8.330;2023-07-22T12:08:32;100058.44;;;32.19;32.05
11525;BME280;5819;49.648;8.330;2023-07-22T12:11:02;100057.56;;;32.32;31.16
11525;BME280;5819;49.648;8.330;2023-07-22T12:13:39;100063.03;;;31.86;31.93
11525;BME280;5819;49.648;8.330;2023-07-22T12:16:12;100076.69;;;31.05;32.26
11525;BME280;5819;49.648;8.330;2023-07-22T12:18:46;100095.41;;;29.55;35.19
11525;BME280;5819;49.648;8.330;2023-07-22T12:21:18;100093.75;;;30.03;34.89
11525;BME280;5819;49.648;8.330;2023-07-22T12:23:49;100052.06;;;31.87;32.47
11525;BME280;5819;49.648;8.330;2023-07-22T12:26:20;100046.69;;;31.87;31.58
11525;BME280;5819;49.648;8.330;2023-07-22T12:28:53;100050.00;;;31.83;31.09
11525;BME280;5819;49.648;8.330;2023-07-22T12:31:23;100080.69;;;30.75;33.19
11525;BME280;5819;49.648;8.330;2023-07-22T12:33:57;100052.50;;;31.51;31.80
11525;BME280;5819;49.648;8.330;2023-07-22T12:36:28;100056.63;;;31.15;32.34
11525;BME280;5819;49.648;8.330;2023-07-22T12:38:59;100069.00;;;29.80;33.71
11525;BME280;5819;49.648;8.330;2023-07-22T12:41:31;100073.50;;;30.00;33.84
11525;BME280;5819;49.648;8.330;2023-07-22T12:44:01;100074.06;;;30.30;32.76
11525;BME280;5819;49.648;8.330;2023-07-22T12:46:31;100071.09;;;29.56;33.82
11525;BME280;5819;49.648;8.330;2023-07-22T12:49:00;100095.25;;;28.63;36.22
11525;BME280;5819;49.648;8.330;2023-07-22T12:51:34;100083.16;;;27.79;36.76
11525;BME280;5819;49.648;8.330;2023-07-22T12:54:03;100073.22;;;29.40;35.32
11525;BME280;5819;49.648;8.330;2023-07-22T12:56:31;100073.53;;;28.73;35.26
11525;BME280;5819;49.648;8.330;2023-07-22T12:59:03;100086.63;;;28.32;36.75
11525;BME280;5819;49.648;8.330;2023-07-22T13:01:33;100089.34;;;27.80;36.91
11525;BME280;5819;49.648;8.330;2023-07-22T13:04:02;100059.41;;;29.92;34.41
11525;BME280;5819;49.648;8.330;2023-07-22T13:06:34;100057.63;;;30.05;33.52
11525;BME280;5819;49.648;8.330;2023-07-22T13:09:08;100042.47;;;30.80;33.26
11525;BME280;5819;49.648;8.330;2023-07-22T13:11:37;100046.94;;;30.53;32.98
11525;BME280;5819;49.648;8.330;2023-07-22T13:14:09;100046.53;;;30.15;33.49
11525;BME280;5819;49.648;8.330;2023-07-22T13:16:37;100064.03;;;29.27;34.65
11525;BME280;5819;49.648;8.330;2023-07-22T13:19:06;100047.28;;;30.02;33.73
11525;BME280;5819;49.648;8.330;2023-07-22T13:21:34;100059.22;;;29.02;34.68
11525;BME280;5819;49.648;8.330;2023-07-22T13:24:03;100047.56;;;29.52;33.64
11525;BME280;5819;49.648;8.330;2023-07-22T13:26:31;100045.97;;;30.26;33.71
11525;BME280;5819;49.648;8.330;2023-07-22T13:29:02;100043.66;;;30.16;33.46
11525;BME280;5819;49.648;8.330;2023-07-22T13:31:32;100051.97;;;29.66;33.55
11525;BME280;5819;49.648;8.330;2023-07-22T13:34:01;100048.38;;;29.80;33.91
11525;BME280;5819;49.648;8.330;2023-07-22T13:36:30;100045.94;;;30.19;33.29
11525;BME280;5819;49.648;8.330;2023-07-22T13:38:59;100042.06;;;30.29;33.17
11525;BME280;5819;49.648;8.330;2023-07-22T13:41:29;100043.44;;;30.18;33.34
11525;BME280;5819;49.648;8.330;2023-07-22T13:43:59;100042.19;;;30.14;33.26
11525;BME280;5819;49.648;8.330;2023-07-22T13:46:28;100050.41;;;29.78;33.27